This is the latest recevied weather packets stored in our database for station/object KR8N. If no packets are shown the sender has not sent any weather packets the latest 1 day(s).
| Time | Temp. | Humidity | Pressure | Rain* | Wind** | Luminosity | Snow |
|---|---|---|---|---|---|---|---|
| 1777981775 | 13.33° C | 73% | 1017.3 hPa | 0 mm | 0 m/s | 96 W/m² | - |
| 1777981471 | 12.22° C | 76% | 1017.3 hPa | 0 mm | 0 m/s | 82 W/m² | - |
| 1777981167 | 11.67° C | 79% | 1017.3 hPa | 0 mm | 0 m/s | 61 W/m² | - |
| 1777980864 | 10.56° C | 82% | 1017.3 hPa | 0 mm | 0.45 m/s, 108° | 52 W/m² | - |
| 1777980560 | 9.44° C | 87% | 1017.2 hPa | 0 mm | 0.45 m/s, 77° | 56 W/m² | - |
| 1777980258 | 8.33° C | 90% | 1017.3 hPa | 0 mm | 0 m/s | 38 W/m² | - |
| 1777979954 | 8.33° C | 91% | 1017.3 hPa | 0 mm | 0 m/s | 30 W/m² | - |
| 1777979649 | 7.78° C | 92% | 1017.2 hPa | 0 mm | 0 m/s | 24 W/m² | - |
| 1777979345 | 7.78° C | 93% | 1017.2 hPa | 0 mm | 0 m/s | 23 W/m² | - |
| 1777979042 | 7.22° C | 93% | 1017.3 hPa | 0 mm | 0 m/s | 24 W/m² | - |
| 1777978739 | 7.22° C | 93% | 1017.3 hPa | 0 mm | 0 m/s | 21 W/m² | - |
| 1777978435 | 7.22° C | 93% | 1017.1 hPa | 0 mm | 0 m/s | 18 W/m² | - |
| 1777978132 | 6.67° C | 93% | 1017.1 hPa | 0 mm | 0 m/s | 15 W/m² | - |
| 1777977829 | 6.67° C | 92% | 1016.9 hPa | 0 mm | 0 m/s | 11 W/m² | - |
| 1777977525 | 7.22° C | 92% | 1016.9 hPa | 0 mm | 0 m/s | 8 W/m² | - |
| 1777977223 | 7.22° C | 92% | 1016.9 hPa | 0 mm | 0 m/s | 6 W/m² | - |
| 1777976920 | 7.22° C | 91% | 1016.7 hPa | 0 mm | 0 m/s | 4 W/m² | - |
| 1777976617 | 7.22° C | 91% | 1016.8 hPa | 0 mm | 0 m/s | 2 W/m² | - |
| 1777976313 | 7.22° C | 90% | 1016.8 hPa | 0 mm | 0 m/s | 1 W/m² | - |
| 1777976008 | 7.78° C | 89% | 1016.7 hPa | 0 mm | 0 m/s | 0 W/m² | - |
| 1777975704 | 7.78° C | 88% | 1016.8 hPa | 0 mm | 0 m/s | 0 W/m² | - |
| 1777975401 | 8.33° C | 87% | 1016.3 hPa | 0 mm | 0 m/s | 0 W/m² | - |
| 1777975096 | 8.33° C | 87% | 1016.7 hPa | 0 mm | 0 m/s | 0 W/m² | - |
| 1777974794 | 8.33° C | 87% | 1016.3 hPa | 0 mm | 0 m/s | 0 W/m² | - |
| 1777974490 | 8.33° C | 87% | 1016.6 hPa | 0 mm | 0 m/s | 0 W/m² | - |
* Rain latest hour (hover to see other rain measurements)
** Current wind speed in m/s (hover to see current wind gust speed)